createdAt,value
2022-10-01T00:01:19.928Z,86.00
2022-10-01T00:03:47.887Z,85.41
2022-10-01T00:06:20.541Z,86.11
2022-10-01T00:08:50.896Z,86.88
2022-10-01T00:11:26.273Z,86.16
2022-10-01T00:13:54.857Z,86.76
2022-10-01T00:16:28.458Z,86.86
2022-10-01T00:18:56.305Z,87.62
2022-10-01T00:21:35.482Z,86.28
2022-10-01T00:24:06.469Z,86.70
2022-10-01T00:26:37.673Z,87.23
2022-10-01T00:29:14.979Z,88.20
2022-10-01T00:31:42.952Z,87.45
2022-10-01T00:34:14.970Z,87.12
2022-10-01T00:36:42.231Z,87.40
2022-10-01T00:39:12.004Z,88.10
2022-10-01T00:41:39.212Z,86.36
2022-10-01T00:44:45.331Z,87.36
2022-10-01T00:47:41.021Z,87.51
2022-10-01T00:50:30.506Z,87.46
2022-10-01T00:53:06.639Z,85.98
2022-10-01T00:55:51.866Z,87.66
2022-10-01T00:58:20.249Z,87.07
2022-10-01T01:00:48.893Z,87.70
2022-10-01T01:03:16.731Z,88.16
2022-10-01T01:05:44.079Z,87.31
2022-10-01T01:08:11.470Z,88.45
2022-10-01T01:10:54.203Z,88.21
2022-10-01T01:13:51.168Z,88.96
2022-10-01T01:16:38.178Z,88.17
2022-10-01T01:19:42.744Z,88.44
2022-10-01T01:22:13.509Z,89.04
2022-10-01T01:25:08.356Z,89.19
2022-10-01T01:28:23.228Z,87.85
2022-10-01T01:30:58.094Z,87.88
2022-10-01T01:33:29.133Z,87.08
2022-10-01T01:36:07.751Z,87.78
2022-10-01T01:38:43.465Z,87.19
2022-10-01T01:41:12.456Z,88.56
2022-10-01T01:43:45.220Z,88.83
2022-10-01T01:46:17.585Z,88.91
2022-10-01T01:48:49.446Z,89.49
2022-10-01T01:51:58.360Z,86.98
2022-10-01T01:54:25.446Z,87.49
2022-10-01T01:56:55.786Z,89.27
2022-10-01T01:59:23.055Z,89.25
2022-10-01T02:01:51.086Z,89.49
2022-10-01T02:04:42.815Z,89.37
2022-10-01T02:07:43.033Z,89.73
2022-10-01T02:10:45.206Z,88.71
2022-10-01T02:13:48.057Z,88.78
2022-10-01T02:16:48.134Z,88.67
2022-10-01T02:19:31.270Z,87.91
2022-10-01T02:22:23.551Z,89.65
2022-10-01T02:24:57.586Z,88.39
2022-10-01T02:27:44.395Z,88.88
2022-10-01T02:30:12.675Z,88.08
2022-10-01T02:32:44.576Z,88.24
2022-10-01T02:35:17.519Z,87.55
2022-10-01T02:37:49.084Z,88.55
2022-10-01T02:40:22.364Z,89.13
2022-10-01T02:42:55.016Z,89.13
2022-10-01T02:45:24.742Z,88.16
2022-10-01T02:48:02.210Z,89.11
2022-10-01T02:50:51.691Z,88.81
2022-10-01T02:53:41.528Z,89.29
2022-10-01T02:56:10.596Z,89.72
2022-10-01T02:58:37.523Z,90.52
2022-10-01T03:01:04.519Z,89.46
2022-10-01T03:03:32.356Z,89.50
2022-10-01T03:05:59.333Z,90.27
2022-10-01T03:08:26.316Z,88.62
2022-10-01T03:10:53.262Z,89.47
2022-10-01T03:13:21.946Z,90.23
2022-10-01T03:15:48.984Z,89.26
2022-10-01T03:18:16.002Z,88.57
2022-10-01T03:20:42.933Z,89.17
2022-10-01T03:23:09.856Z,87.76
2022-10-01T03:25:37.200Z,90.19
2022-10-01T03:28:04.375Z,88.67
2022-10-01T03:30:32.771Z,89.02
2022-10-01T03:32:59.828Z,87.84
2022-10-01T03:35:26.798Z,88.77
2022-10-01T03:37:53.897Z,89.20
2022-10-01T03:40:20.833Z,87.33
2022-10-01T03:42:47.828Z,88.97
2022-10-01T03:45:14.915Z,88.30
2022-10-01T03:47:42.255Z,88.09
2022-10-01T03:50:09.340Z,88.74
2022-10-01T03:52:36.485Z,88.46
2022-10-01T03:55:03.742Z,86.61
2022-10-01T03:57:30.792Z,88.34
2022-10-01T03:59:57.773Z,88.79
2022-10-01T04:02:25.403Z,87.76
2022-10-01T04:04:52.600Z,88.52
2022-10-01T04:07:19.554Z,88.37
2022-10-01T04:09:46.537Z,87.33
2022-10-01T04:12:13.632Z,88.46
2022-10-01T04:14:40.636Z,87.18
2022-10-01T04:17:07.640Z,88.70
2022-10-01T04:19:34.647Z,88.16
2022-10-01T04:22:01.565Z,87.76
2022-10-01T04:24:28.509Z,87.35
2022-10-01T04:26:55.481Z,86.59
2022-10-01T04:29:22.495Z,88.63
2022-10-01T04:31:49.492Z,87.40
2022-10-01T04:34:16.425Z,87.19
2022-10-01T04:36:43.368Z,89.22
2022-10-01T04:39:10.487Z,88.02
2022-10-01T04:41:40.219Z,88.69
2022-10-01T04:44:07.253Z,87.96
2022-10-01T04:46:34.568Z,87.68
2022-10-01T04:49:01.890Z,87.33
2022-10-01T04:51:28.907Z,87.50
2022-10-01T04:53:55.935Z,87.35
2022-10-01T04:56:22.932Z,87.54
2022-10-01T04:58:50.362Z,87.18
2022-10-01T05:01:17.450Z,86.93
2022-10-01T05:03:44.517Z,87.05
2022-10-01T05:06:11.623Z,84.73
2022-10-01T05:08:39.078Z,87.29
2022-10-01T05:11:06.312Z,85.40
2022-10-01T05:13:33.327Z,85.77
2022-10-01T05:16:03.302Z,85.36
2022-10-01T05:18:30.484Z,85.61
2022-10-01T05:20:57.961Z,85.10
2022-10-01T05:23:27.946Z,86.16
2022-10-01T05:25:58.606Z,85.74
2022-10-01T05:28:28.062Z,86.49
2022-10-01T05:30:58.746Z,85.14
2022-10-01T05:34:05.436Z,85.79
2022-10-01T05:36:34.880Z,85.40
2022-10-01T05:39:02.204Z,84.77
2022-10-01T05:41:32.735Z,85.49
2022-10-01T05:44:00.007Z,85.48
2022-10-01T05:46:29.427Z,84.53
2022-10-01T05:48:59.802Z,83.70
2022-10-01T05:51:32.929Z,85.07
2022-10-01T05:54:04.528Z,85.05
2022-10-01T05:56:34.016Z,84.36
2022-10-01T05:59:04.388Z,84.98
2022-10-01T06:01:32.618Z,84.52
2022-10-01T06:04:00.012Z,84.72
2022-10-01T06:06:39.606Z,84.47
2022-10-01T06:09:06.619Z,84.65
2022-10-01T06:11:37.039Z,84.39
2022-10-01T06:14:04.159Z,83.60
2022-10-01T06:16:31.887Z,84.40
2022-10-01T06:21:43.676Z,84.30
2022-10-01T06:24:11.090Z,84.37
2022-10-01T06:26:38.644Z,83.77
2022-10-01T06:29:35.810Z,83.73
2022-10-01T06:32:02.950Z,82.54
2022-10-01T06:34:33.185Z,83.38
2022-10-01T06:37:00.258Z,84.07
2022-10-01T06:39:33.169Z,83.72
2022-10-01T06:42:06.221Z,83.66
2022-10-01T06:44:47.271Z,83.86
2022-10-01T06:47:32.842Z,84.07
2022-10-01T06:50:33.668Z,83.09
2022-10-01T06:53:02.101Z,82.57
2022-10-01T06:55:51.984Z,82.76
2022-10-01T06:58:32.962Z,82.85
2022-10-01T07:01:11.594Z,82.01
2022-10-01T07:03:38.557Z,81.81
2022-10-01T07:06:26.519Z,82.04
2022-10-01T07:09:11.873Z,81.87
2022-10-01T07:11:43.003Z,82.58
2022-10-01T07:14:40.017Z,82.35
2022-10-01T07:17:21.704Z,82.26
2022-10-01T07:19:49.007Z,81.71
2022-10-01T07:25:00.455Z,82.58
2022-10-01T07:27:27.706Z,82.07
2022-10-01T07:29:59.063Z,81.90
2022-10-01T07:32:26.465Z,81.29
2022-10-01T07:34:53.497Z,81.31
2022-10-01T07:37:21.486Z,81.47
2022-10-01T07:39:48.531Z,81.47
2022-10-01T07:42:15.773Z,81.69
2022-10-01T07:44:45.975Z,82.00
2022-10-01T07:47:12.977Z,80.99
2022-10-01T07:49:39.990Z,81.54
2022-10-01T07:52:12.392Z,80.84
2022-10-01T07:54:40.315Z,80.78
2022-10-01T07:57:08.012Z,79.58
2022-10-01T07:59:35.037Z,79.56
2022-10-01T08:02:05.189Z,79.88
2022-10-01T08:05:02.453Z,80.51
2022-10-01T08:07:35.711Z,79.55
2022-10-01T08:10:04.652Z,79.01
2022-10-01T08:12:33.429Z,79.86
2022-10-01T08:15:02.188Z,78.89
2022-10-01T08:17:29.789Z,79.20
2022-10-01T08:19:59.624Z,78.96
2022-10-01T08:22:29.241Z,78.11
2022-10-01T08:24:56.242Z,78.21
2022-10-01T08:27:28.156Z,78.92
2022-10-01T08:29:55.467Z,78.16
2022-10-01T08:32:27.444Z,78.15
2022-10-01T08:34:57.552Z,77.75
2022-10-01T08:37:29.147Z,78.24
2022-10-01T08:39:57.266Z,77.24
2022-10-01T08:42:53.808Z,77.02
2022-10-01T08:45:49.446Z,77.16
2022-10-01T08:48:57.312Z,78.16
2022-10-01T08:52:04.575Z,78.50
2022-10-01T08:54:48.383Z,77.56
2022-10-01T08:57:43.358Z,78.00
2022-10-01T09:00:18.921Z,76.59
2022-10-01T09:02:51.367Z,76.95
2022-10-01T09:06:07.056Z,76.29
2022-10-01T09:09:45.277Z,75.18
2022-10-01T09:12:52.368Z,76.33
2022-10-01T09:15:53.304Z,74.51
2022-10-01T09:18:44.454Z,74.46
2022-10-01T09:21:52.246Z,74.14
2022-10-01T09:24:43.734Z,73.02
2022-10-01T09:27:24.773Z,73.14
2022-10-01T09:30:03.090Z,72.62
2022-10-01T09:33:12.832Z,72.05
2022-10-01T09:36:14.339Z,72.52
2022-10-01T09:39:20.197Z,72.69
2022-10-01T09:41:48.419Z,73.95
2022-10-01T09:44:31.254Z,73.22
2022-10-01T09:46:58.387Z,72.58
2022-10-01T09:49:55.037Z,72.44
2022-10-01T09:52:29.184Z,73.76
2022-10-01T09:55:11.447Z,75.07
2022-10-01T09:57:47.931Z,75.76
2022-10-01T10:00:22.659Z,75.49
2022-10-01T10:02:54.022Z,75.61
2022-10-01T10:05:30.435Z,74.24
2022-10-01T10:08:12.099Z,74.62
2022-10-01T10:10:47.303Z,74.84
2022-10-01T10:13:39.248Z,75.47
2022-10-01T10:16:37.179Z,75.16
2022-10-01T10:19:26.398Z,75.71
2022-10-01T10:21:59.685Z,76.90
2022-10-01T10:24:35.996Z,77.26
2022-10-01T10:27:20.543Z,77.36
2022-10-01T10:29:47.575Z,78.49
2022-10-01T10:32:27.523Z,78.21
2022-10-01T10:35:04.721Z,77.81
2022-10-01T10:37:50.848Z,79.56
2022-10-01T10:40:29.069Z,80.30
2022-10-01T10:42:58.645Z,80.43
2022-10-01T10:45:38.736Z,81.31
2022-10-01T10:48:12.135Z,81.32
2022-10-01T10:50:45.332Z,81.60
2022-10-01T10:53:27.561Z,82.01
2022-10-01T10:56:07.219Z,82.68
2022-10-01T10:58:40.288Z,82.76
2022-10-01T11:01:13.588Z,83.38
2022-10-01T11:03:53.641Z,83.95
2022-10-01T11:06:21.002Z,84.33
2022-10-01T11:08:59.471Z,85.75
2022-10-01T11:11:50.596Z,85.36
2022-10-01T11:14:46.301Z,85.47
2022-10-01T11:17:49.462Z,86.05
2022-10-01T11:20:32.426Z,85.68
2022-10-01T11:23:56.754Z,86.64
2022-10-01T11:26:38.669Z,85.79
2022-10-01T11:30:15.286Z,85.87
2022-10-01T11:33:03.434Z,85.71
2022-10-01T11:36:01.603Z,85.97
2022-10-01T11:39:03.922Z,85.82
2022-10-01T11:42:04.505Z,86.19
2022-10-01T11:45:15.575Z,85.52
2022-10-01T11:48:00.271Z,86.51
2022-10-01T11:50:40.271Z,85.72
2022-10-01T11:53:33.299Z,85.76
2022-10-01T11:56:29.391Z,85.63
2022-10-01T11:59:41.443Z,85.98
2022-10-01T12:02:30.431Z,85.52
2022-10-01T12:05:31.732Z,85.64
2022-10-01T12:08:21.991Z,85.39
2022-10-01T12:11:05.385Z,85.26
2022-10-01T12:13:53.107Z,85.71
2022-10-01T12:17:14.790Z,84.81
2022-10-01T12:19:50.874Z,85.09
2022-10-01T12:22:30.994Z,85.31
2022-10-01T12:24:58.270Z,84.67
2022-10-01T12:28:22.127Z,83.77
2022-10-01T12:31:22.488Z,84.71
2022-10-01T12:34:45.259Z,83.84
2022-10-01T12:38:11.082Z,83.75
2022-10-01T12:41:25.493Z,84.88
2022-10-01T12:45:40.350Z,85.17
2022-10-01T12:48:32.303Z,85.77
2022-10-01T12:51:53.055Z,86.75
2022-10-01T12:54:53.284Z,86.50
2022-10-01T12:58:00.909Z,86.87
2022-10-01T13:00:42.160Z,87.48
2022-10-01T13:04:24.370Z,87.41
2022-10-01T13:07:50.237Z,87.06
2022-10-01T13:10:59.952Z,87.46
2022-10-01T13:13:35.675Z,88.17
2022-10-01T13:16:33.595Z,88.36
2022-10-01T13:19:38.351Z,88.52
2022-10-01T13:22:55.614Z,88.10
2022-10-01T13:25:48.120Z,88.60
2022-10-01T13:28:44.307Z,88.87
2022-10-01T13:31:19.678Z,88.32
2022-10-01T13:33:57.399Z,88.26
2022-10-01T13:36:35.633Z,88.01
2022-10-01T13:39:05.641Z,88.49
2022-10-01T13:41:34.881Z,88.51
2022-10-01T13:44:07.881Z,88.31
2022-10-01T13:47:00.870Z,87.41
2022-10-01T13:49:31.298Z,87.63
2022-10-01T13:51:59.026Z,87.91
2022-10-01T13:54:50.031Z,87.31
2022-10-01T13:57:39.178Z,87.12
2022-10-01T14:00:12.305Z,88.31
2022-10-01T14:03:27.182Z,87.30
2022-10-01T14:05:59.095Z,87.22
2022-10-01T14:08:50.069Z,86.42
2022-10-01T14:11:43.844Z,86.48
2022-10-01T14:14:45.400Z,86.63
2022-10-01T14:17:14.234Z,86.86
2022-10-01T14:19:49.755Z,86.53
2022-10-01T14:22:59.267Z,86.61
2022-10-01T14:25:53.654Z,86.50
2022-10-01T14:28:54.483Z,85.67
2022-10-01T14:31:51.331Z,87.17
2022-10-01T14:34:42.891Z,87.45
2022-10-01T14:37:17.649Z,86.86
2022-10-01T14:39:45.254Z,86.35
2022-10-01T14:42:18.829Z,86.01
2022-10-01T14:44:47.369Z,86.86
2022-10-01T14:47:27.836Z,87.12
2022-10-01T14:49:55.809Z,87.53
2022-10-01T14:52:31.444Z,86.98
2022-10-01T14:55:06.906Z,87.64
2022-10-01T14:57:43.434Z,86.84
2022-10-01T15:00:24.475Z,87.64
2022-10-01T15:03:07.776Z,86.74
2022-10-01T15:05:37.346Z,86.83
2022-10-01T15:08:22.340Z,86.80
2022-10-01T15:11:02.080Z,87.78
2022-10-01T15:13:36.485Z,87.98
2022-10-01T15:16:03.732Z,87.23
2022-10-01T15:18:32.017Z,87.33
2022-10-01T15:21:06.786Z,87.09
2022-10-01T15:23:38.731Z,87.84
2022-10-01T15:26:12.476Z,87.47
2022-10-01T15:28:39.543Z,87.14
2022-10-01T15:31:07.809Z,87.51
2022-10-01T15:33:40.473Z,87.50
2022-10-01T15:36:18.934Z,86.39
2022-10-01T15:38:49.203Z,86.06
2022-10-01T15:41:32.846Z,86.46
2022-10-01T15:44:05.301Z,85.73
2022-10-01T15:46:35.352Z,85.61
2022-10-01T15:49:15.094Z,85.75
2022-10-01T15:52:20.895Z,86.21
2022-10-01T15:54:57.364Z,85.61
2022-10-01T15:57:27.199Z,85.87
2022-10-01T15:59:56.746Z,85.65
2022-10-01T16:02:30.529Z,85.23
2022-10-01T16:05:06.633Z,86.52
2022-10-01T16:07:35.321Z,86.26
2022-10-01T16:10:42.275Z,86.14
2022-10-01T16:13:38.614Z,87.04
2022-10-01T16:16:31.230Z,86.17
2022-10-01T16:19:29.729Z,86.61
2022-10-01T16:22:31.816Z,86.74
2022-10-01T16:25:07.089Z,86.70
2022-10-01T16:28:03.916Z,86.35
2022-10-01T16:30:33.826Z,86.12
2022-10-01T16:33:05.097Z,86.73
2022-10-01T16:35:40.333Z,86.69
2022-10-01T16:38:09.061Z,86.24
2022-10-01T16:40:49.220Z,86.57
2022-10-01T16:43:24.254Z,87.71
2022-10-01T16:45:51.928Z,86.76
2022-10-01T16:48:24.631Z,86.91
2022-10-01T16:50:53.627Z,87.83
2022-10-01T16:53:20.896Z,86.86
2022-10-01T16:55:47.890Z,87.30
2022-10-01T16:58:15.663Z,86.22
2022-10-01T17:00:42.971Z,86.43
2022-10-01T17:03:22.231Z,87.15
2022-10-01T17:05:49.908Z,88.00
2022-10-01T17:08:17.077Z,88.22
2022-10-01T17:10:56.747Z,87.96
2022-10-01T17:13:27.971Z,87.09
2022-10-01T17:15:55.053Z,88.89
2022-10-01T17:18:22.678Z,87.59
2022-10-01T17:20:49.858Z,87.03
2022-10-01T17:23:19.819Z,88.24
2022-10-01T17:25:47.065Z,87.83
2022-10-01T17:28:18.313Z,87.66
2022-10-01T17:30:48.191Z,87.90
2022-10-01T17:33:22.390Z,87.05
2022-10-01T17:35:55.576Z,87.14
2022-10-01T17:38:23.921Z,87.71
2022-10-01T17:40:56.398Z,88.08
2022-10-01T17:43:23.918Z,89.13
2022-10-01T17:46:00.787Z,87.98
2022-10-01T17:48:29.854Z,87.68
2022-10-01T17:51:05.480Z,88.22
2022-10-01T17:53:41.136Z,88.48
2022-10-01T17:56:14.952Z,87.62
2022-10-01T17:58:45.219Z,87.66
2022-10-01T18:01:19.729Z,88.05
2022-10-01T18:03:47.636Z,87.31
2022-10-01T18:06:16.009Z,87.68
2022-10-01T18:08:58.439Z,88.37
2022-10-01T18:11:29.129Z,88.48
2022-10-01T18:13:56.123Z,87.53
2022-10-01T18:16:24.170Z,87.91
2022-10-01T18:21:48.440Z,87.93
2022-10-01T18:24:16.533Z,87.95
2022-10-01T18:26:45.656Z,88.97
2022-10-01T18:29:26.629Z,89.80
2022-10-01T18:32:16.500Z,89.16
2022-10-01T18:34:57.736Z,91.11
2022-10-01T18:37:39.987Z,90.74
2022-10-01T18:40:25.352Z,89.46
2022-10-01T18:43:09.326Z,91.64
2022-10-01T18:46:07.809Z,92.74
2022-10-01T18:49:07.515Z,91.27
2022-10-01T18:51:56.172Z,91.20
2022-10-01T18:54:34.638Z,91.91
2022-10-01T18:57:31.455Z,91.97
2022-10-01T19:00:24.077Z,92.35
2022-10-01T19:03:35.182Z,92.64
2022-10-01T19:06:41.436Z,91.90
2022-10-01T19:09:29.745Z,91.63
2022-10-01T19:12:43.692Z,91.48
2022-10-01T19:15:57.414Z,91.93
2022-10-01T19:18:51.730Z,92.61
2022-10-01T19:22:01.409Z,91.24
2022-10-01T19:24:42.376Z,91.98
2022-10-01T19:27:29.901Z,91.44
2022-10-01T19:30:17.524Z,91.17
2022-10-01T19:33:01.979Z,91.12
2022-10-01T19:35:41.695Z,92.04
2022-10-01T19:38:40.502Z,91.61
2022-10-01T19:41:27.123Z,92.20
2022-10-01T19:44:32.811Z,92.32
2022-10-01T19:48:30.707Z,92.69
2022-10-01T19:51:10.100Z,91.86
2022-10-01T19:53:39.552Z,91.81
2022-10-01T19:56:07.402Z,92.17
2022-10-01T19:58:34.650Z,92.13
2022-10-01T20:01:03.966Z,90.73
2022-10-01T20:03:45.046Z,93.37
2022-10-01T20:06:42.338Z,92.71
2022-10-01T20:09:24.538Z,92.41
2022-10-01T20:12:29.154Z,91.99
2022-10-01T20:15:40.871Z,92.52
2022-10-01T20:18:42.428Z,92.54
2022-10-01T20:21:40.405Z,92.15
2022-10-01T20:24:35.590Z,92.81
2022-10-01T20:27:35.511Z,92.89
2022-10-01T20:30:15.673Z,92.73
2022-10-01T20:33:38.769Z,93.32
2022-10-01T20:36:56.749Z,92.58
2022-10-01T20:39:42.512Z,92.34
2022-10-01T20:42:20.744Z,92.81
2022-10-01T20:44:47.824Z,92.71
2022-10-01T20:47:43.968Z,91.91
2022-10-01T20:50:43.717Z,91.99
2022-10-01T20:53:40.220Z,92.04
2022-10-01T20:56:37.932Z,91.74
2022-10-01T20:59:29.842Z,92.24
2022-10-01T21:02:25.275Z,91.84
2022-10-01T21:05:22.763Z,91.48
2022-10-01T21:08:01.133Z,91.34
2022-10-01T21:10:54.249Z,90.92
2022-10-01T21:13:30.197Z,91.38
2022-10-01T21:16:41.833Z,91.77
2022-10-01T21:19:39.853Z,91.78
2022-10-01T21:22:42.920Z,91.91
2022-10-01T21:25:41.093Z,91.62
2022-10-01T21:28:26.013Z,92.28
2022-10-01T21:31:49.183Z,91.61
2022-10-01T21:34:46.752Z,91.71
2022-10-01T21:38:09.567Z,92.10
2022-10-01T21:41:15.951Z,91.84
2022-10-01T21:44:08.886Z,91.80
2022-10-01T21:47:01.984Z,91.82
2022-10-01T21:49:42.112Z,92.20
2022-10-01T21:53:06.594Z,92.46
2022-10-01T21:56:16.688Z,91.94
2022-10-01T21:59:06.894Z,91.79
2022-10-01T22:02:01.820Z,92.31
2022-10-01T22:05:02.332Z,91.89
2022-10-01T22:07:42.760Z,92.15
2022-10-01T22:10:47.017Z,92.41
2022-10-01T22:13:29.607Z,91.66
2022-10-01T22:16:04.865Z,92.11
2022-10-01T22:18:49.202Z,92.14
2022-10-01T22:21:47.962Z,91.95
2022-10-01T22:24:26.692Z,91.75
2022-10-01T22:27:21.624Z,91.40
2022-10-01T22:30:10.887Z,92.00
2022-10-01T22:33:19.868Z,91.23
2022-10-01T22:36:15.699Z,90.84
2022-10-01T22:38:55.722Z,91.23
2022-10-01T22:41:52.773Z,92.20
2022-10-01T22:44:23.099Z,91.83
2022-10-01T22:47:02.528Z,92.58
2022-10-01T22:50:07.116Z,91.84
2022-10-01T22:53:18.106Z,92.13
2022-10-01T22:55:56.749Z,91.82
2022-10-01T22:59:04.282Z,91.80
2022-10-01T23:02:03.292Z,91.65
2022-10-01T23:05:45.117Z,92.13
2022-10-01T23:09:14.724Z,91.78
2022-10-01T23:12:20.046Z,91.52
2022-10-01T23:15:11.110Z,91.40
2022-10-01T23:18:43.858Z,91.27
2022-10-01T23:21:51.826Z,91.37
2022-10-01T23:25:31.565Z,92.61
2022-10-01T23:28:44.721Z,91.48
2022-10-01T23:31:46.225Z,91.80
2022-10-01T23:34:50.860Z,91.65
2022-10-01T23:38:08.793Z,92.25
2022-10-01T23:40:45.588Z,91.58
2022-10-01T23:43:34.395Z,91.85
2022-10-01T23:46:07.738Z,91.12
2022-10-01T23:49:14.704Z,91.65
2022-10-01T23:52:07.603Z,91.33
2022-10-01T23:55:18.879Z,91.14
2022-10-01T23:57:51.429Z,92.68
